Kezdőlap
METAR-TAF:

METAR-TAF

Repülőterek :

Pardubice, Csehország

földrajzi szélesség: 50-00-48N, földrajzi hosszúság: 15-44-19E, magasság: 226 m

Jelenlegi meteorológiai megfigyelések

A jelentés 47 perccel ezelõtt készült, 18:00 UTC
Nyugati szél 2 kt
Hőmérséklet 10°C
Páratartalom 53%
Légköri nyomás 1027 hPa
Látótávolság 10 km, vagy több
felhőtlen 1500 m magasságban, és nincs gomolyfelhõ

METAR: LKPD 201800Z 28002KT CAVOK 10/01 Q1027 RMK BLACK

Idő: 20:47 (18:47 UTC)


TAF: hiányzik

Meteorológiai megfigyelések és előrejelzések több, mint 4000 repülőtéren (METAR és TAF jelentéseket).

A térképen piros és sárga pontok jelzik az elérhető meteorológiai állomásokat.

Mozgassa az egeret a pont fölött, hogy megjelenjen az állomás neve.

Azután kattintson az időjárási megfigyelések és előrejelzések megtekintéséhez.

A térkép megváltoztatása: kattintson a fekete keresztel jelölt zöld gombra ráközelítéshez, a vonallal jelölt zöld gombra távolításhoz, vagy a zöld nyilakra a szomszédos térképek eléréséhez.


METAR-TAF: